Yarmouth, Canada
Current Conditions -  °F | °C
As of 1:53 AM on Tuesday 27 Jan 2015 (Local Time) from CYQI Reporting Station
Light Snow Light Snow  
Wind Chill:   Ceiling: 2500
Heat Index: 19°   Visibility: 4mi
Dew Point: 12°   Wind: 22mph
Humidity: 74%   Direction: 70°ENE
Pressure: 29.97"   Gusts: 36mph
Location:  43.84°N, 66.12°W
Report Text: CYQI 270553Z 07019G31KT 4SM -SN OVC025 M07/M11 A2997 RMK SN4SC4 PRESFR SLP153
Loading
Personal Weather Stations






























Interactive Weather Map New forecast layout! Learn more

10-Day Weather Forecast

Advertisements
Track Severe Weather on mobile